createdAt,value
2019-05-30T00:01:29.976Z,97313.02
2019-05-30T00:03:56.076Z,97315.79
2019-05-30T00:06:21.896Z,97315.26
2019-05-30T00:08:47.958Z,97312.25
2019-05-30T00:11:13.762Z,97314.27
2019-05-30T00:13:39.660Z,97311.03
2019-05-30T00:16:05.750Z,97305.67
2019-05-30T00:18:31.948Z,97311.34
2019-05-30T00:20:58.748Z,97244.94
2019-05-30T00:23:24.701Z,97308.36
2019-05-30T00:25:50.789Z,97309.28
2019-05-30T00:28:16.588Z,97305.63
2019-05-30T00:30:42.693Z,97308.91
2019-05-30T00:33:08.538Z,97305.31
2019-05-30T00:35:34.604Z,97300.79
2019-05-30T00:38:01.852Z,97300.79
2019-05-30T00:40:27.956Z,97301.93
2019-05-30T00:42:53.799Z,97304.53
2019-05-30T00:45:21.438Z,97299.70
2019-05-30T00:47:47.424Z,97299.70
2019-05-30T00:50:13.593Z,97295.56
2019-05-30T00:52:39.410Z,97302.28
2019-05-30T00:55:06.842Z,97306.52
2019-05-30T00:57:32.923Z,97308.05
2019-05-30T00:59:58.805Z,97277.58
2019-05-30T01:02:24.625Z,97304.09
2019-05-30T01:04:50.428Z,97309.23
2019-05-30T01:07:16.478Z,97308.75
2019-05-30T01:09:42.286Z,97312.47
2019-05-30T01:12:08.075Z,97305.51
2019-05-30T01:14:33.896Z,97304.41
2019-05-30T01:17:01.050Z,97302.95
2019-05-30T01:19:27.000Z,97304.31
2019-05-30T01:21:52.797Z,97302.52
2019-05-30T01:24:18.620Z,97305.66
2019-05-30T01:26:44.409Z,97297.42
2019-05-30T01:29:10.490Z,97299.61
2019-05-30T01:31:36.328Z,97299.50
2019-05-30T01:34:02.100Z,97293.42
2019-05-30T01:36:27.903Z,97294.72
2019-05-30T01:38:53.766Z,97289.79
2019-05-30T01:41:19.577Z,97285.63
2019-05-30T01:43:45.369Z,97284.59
2019-05-30T01:46:11.285Z,97288.13
2019-05-30T01:48:37.131Z,97296.30
2019-05-30T01:51:03.026Z,97291.27
2019-05-30T01:53:29.118Z,97286.13
2019-05-30T01:55:55.211Z,97292.51
2019-05-30T01:58:21.033Z,97297.31
2019-05-30T02:00:46.997Z,97294.34
2019-05-30T02:03:12.805Z,97291.39
2019-05-30T02:05:38.728Z,97292.83
2019-05-30T02:08:05.509Z,97286.73
2019-05-30T02:10:31.289Z,97290.83
2019-05-30T02:12:57.396Z,97285.39
2019-05-30T02:15:23.208Z,97242.94
2019-05-30T02:17:49.301Z,97292.97
2019-05-30T02:20:15.222Z,97291.61
2019-05-30T02:22:41.652Z,97300.70
2019-05-30T02:25:08.334Z,97297.39
2019-05-30T02:27:34.199Z,97297.50
2019-05-30T02:30:00.343Z,97302.11
2019-05-30T02:32:26.165Z,97305.28
2019-05-30T02:34:52.000Z,97305.30
2019-05-30T02:37:17.815Z,97300.89
2019-05-30T02:39:43.639Z,97300.89
2019-05-30T02:42:10.198Z,97298.16
2019-05-30T02:44:37.182Z,97301.33
2019-05-30T02:47:03.599Z,97301.09
2019-05-30T02:49:31.035Z,97305.95
2019-05-30T02:51:56.823Z,97300.51
2019-05-30T02:54:22.600Z,97301.89
2019-05-30T02:56:48.693Z,97300.45
2019-05-30T02:59:14.481Z,97302.11
2019-05-30T03:01:58.865Z,97299.05
2019-05-30T03:04:10.225Z,97296.73
2019-05-30T03:06:36.087Z,97300.81
2019-05-30T03:09:03.831Z,97304.84
2019-05-30T03:11:29.781Z,97308.07
2019-05-30T03:13:55.952Z,97312.13
2019-05-30T03:16:21.754Z,97311.59
2019-05-30T03:18:47.569Z,97319.76
2019-05-30T03:21:15.436Z,97323.59
2019-05-30T03:23:41.104Z,97315.20
2019-05-30T03:26:09.771Z,97320.34
2019-05-30T03:28:34.976Z,97321.72
2019-05-30T03:31:04.313Z,97320.61
2019-05-30T03:33:39.498Z,97328.64
2019-05-30T03:35:57.250Z,97330.61
2019-05-30T03:38:23.344Z,97322.73
2019-05-30T03:40:49.276Z,97328.67
2019-05-30T03:43:16.051Z,97326.86
2019-05-30T03:45:42.464Z,97328.58
2019-05-30T03:48:12.054Z,97328.69
2019-05-30T03:50:40.593Z,97326.10
2019-05-30T03:53:07.445Z,97334.98
2019-05-30T03:55:35.797Z,97333.11
2019-05-30T03:58:05.625Z,97326.36
2019-05-30T04:00:41.177Z,97330.88
2019-05-30T04:03:15.517Z,97331.02
2019-05-30T04:05:48.038Z,97331.22
2019-05-30T04:08:16.243Z,97335.19
2019-05-30T04:10:42.469Z,97341.92
2019-05-30T04:13:23.989Z,97342.45
2019-05-30T04:15:49.846Z,97350.63
2019-05-30T04:18:16.587Z,97354.75
2019-05-30T04:20:42.831Z,97354.98
2019-05-30T04:23:10.718Z,97353.58
2019-05-30T04:25:36.897Z,97358.91
2019-05-30T04:28:02.831Z,97357.96
2019-05-30T04:30:28.640Z,97356.66
2019-05-30T04:32:54.719Z,97365.11
2019-05-30T04:35:22.477Z,97371.47
2019-05-30T04:37:48.585Z,97367.84
2019-05-30T04:40:15.355Z,97368.95
2019-05-30T04:42:42.648Z,97372.75
2019-05-30T04:45:09.697Z,97367.70
2019-05-30T04:47:35.876Z,97360.05
2019-05-30T04:50:03.975Z,97366.39
2019-05-30T04:52:29.775Z,97368.88
2019-05-30T04:54:55.870Z,97373.75
2019-05-30T04:57:26.807Z,97374.05
2019-05-30T04:59:49.658Z,97372.73
2019-05-30T05:02:16.409Z,97368.31
2019-05-30T05:04:43.451Z,97375.06
2019-05-30T05:07:09.273Z,97376.23
2019-05-30T05:09:35.074Z,97378.41
2019-05-30T05:12:00.860Z,97378.58
2019-05-30T05:14:26.925Z,97385.52
2019-05-30T05:16:52.987Z,97383.02
2019-05-30T05:19:19.572Z,97382.86
2019-05-30T05:21:45.389Z,97387.58
2019-05-30T05:24:11.502Z,97388.28
2019-05-30T05:26:37.341Z,97392.29
2019-05-30T05:29:03.437Z,97393.19
2019-05-30T05:31:29.264Z,97389.81
2019-05-30T05:33:57.129Z,97385.96
2019-05-30T05:36:23.136Z,97385.30
2019-05-30T05:38:48.873Z,97380.80
2019-05-30T05:41:16.023Z,97381.03
2019-05-30T05:43:41.877Z,97383.33
2019-05-30T05:46:07.980Z,97381.08
2019-05-30T05:48:33.802Z,97382.69
2019-05-30T05:50:59.871Z,97378.97
2019-05-30T05:53:25.968Z,97381.51
2019-05-30T05:55:51.787Z,97382.13
2019-05-30T05:58:18.973Z,97389.94
2019-05-30T06:00:45.280Z,97389.84
2019-05-30T06:03:11.116Z,97392.13
2019-05-30T06:05:50.245Z,97396.88
2019-05-30T06:08:04.666Z,97399.81
2019-05-30T06:10:30.484Z,97399.14
2019-05-30T06:12:56.264Z,97408.27
2019-05-30T06:15:22.906Z,97407.14
2019-05-30T06:17:48.809Z,97406.86
2019-05-30T06:20:15.193Z,97411.59
2019-05-30T06:22:41.901Z,97414.59
2019-05-30T06:25:08.015Z,97414.42
2019-05-30T06:27:33.792Z,97416.69
2019-05-30T06:29:59.703Z,97412.28
2019-05-30T06:32:26.669Z,97420.21
2019-05-30T06:34:52.629Z,97415.38
2019-05-30T06:37:19.212Z,97415.73
2019-05-30T06:39:45.135Z,97415.89
2019-05-30T06:42:11.214Z,97418.52
2019-05-30T06:44:37.036Z,97421.50
2019-05-30T06:47:02.840Z,97419.89
2019-05-30T06:49:29.007Z,97421.10
2019-05-30T06:51:54.889Z,97420.20
2019-05-30T06:54:21.676Z,97414.55
2019-05-30T06:56:47.762Z,97416.23
2019-05-30T06:59:13.538Z,97417.11
2019-05-30T07:01:39.595Z,97424.17
2019-05-30T07:04:05.806Z,97424.09
2019-05-30T07:06:33.458Z,97423.15
2019-05-30T07:08:59.503Z,97425.91
2019-05-30T07:11:25.292Z,97425.86
2019-05-30T07:13:51.105Z,97422.77
2019-05-30T07:16:16.926Z,97426.92
2019-05-30T07:18:42.769Z,97433.53
2019-05-30T07:21:08.569Z,97428.45
2019-05-30T07:23:34.385Z,97429.71
2019-05-30T07:26:06.630Z,97430.78
2019-05-30T07:28:32.419Z,97427.63
2019-05-30T07:30:58.339Z,97428.28
2019-05-30T07:33:24.153Z,97432.63
2019-05-30T07:35:49.970Z,97432.47
2019-05-30T07:38:15.760Z,97434.42
2019-05-30T07:40:41.561Z,97438.91
2019-05-30T07:43:07.341Z,97434.97
2019-05-30T07:45:33.494Z,97430.98
2019-05-30T07:47:59.471Z,97439.97
2019-05-30T07:50:26.314Z,97434.50
2019-05-30T07:52:52.298Z,97438.20
2019-05-30T07:55:18.212Z,97441.70
2019-05-30T07:57:44.015Z,97443.02
2019-05-30T08:00:11.542Z,97444.59
2019-05-30T08:02:37.977Z,97443.61
2019-05-30T08:05:20.767Z,97446.75
2019-05-30T08:07:34.977Z,97446.28
2019-05-30T08:10:01.340Z,97446.28
2019-05-30T08:12:27.975Z,97441.25
2019-05-30T08:14:53.853Z,97435.27
2019-05-30T08:17:19.658Z,97436.59
2019-05-30T08:19:45.568Z,97438.05
2019-05-30T08:22:11.421Z,97441.98
2019-05-30T08:24:38.712Z,97438.27
2019-05-30T08:27:04.728Z,97433.72
2019-05-30T08:29:30.516Z,97431.83
2019-05-30T08:31:56.579Z,97432.37
2019-05-30T08:34:22.384Z,97426.22
2019-05-30T08:36:54.275Z,97415.86
2019-05-30T08:39:20.325Z,97423.75
2019-05-30T08:41:46.144Z,97423.50
2019-05-30T08:44:11.958Z,97422.11
2019-05-30T08:46:38.022Z,97423.30
2019-05-30T08:49:03.772Z,97417.26
2019-05-30T08:51:30.127Z,97414.48
2019-05-30T08:53:56.194Z,97413.86
2019-05-30T08:56:22.006Z,97413.19
2019-05-30T08:58:47.899Z,97414.33
2019-05-30T09:01:13.961Z,97414.56
2019-05-30T09:03:40.250Z,97416.02
2019-05-30T09:06:06.055Z,97415.81
2019-05-30T09:08:32.128Z,97415.22
2019-05-30T09:11:00.913Z,97412.41
2019-05-30T09:13:26.727Z,97412.05
2019-05-30T09:15:52.509Z,97404.91
2019-05-30T09:18:18.442Z,97406.30
2019-05-30T09:20:45.275Z,97403.63
2019-05-30T09:23:11.116Z,97405.56
2019-05-30T09:25:38.614Z,97402.07
2019-05-30T09:28:05.228Z,97407.35
2019-05-30T09:30:31.026Z,97403.16
2019-05-30T09:32:56.822Z,97400.95
2019-05-30T09:35:22.719Z,97397.05
2019-05-30T09:37:49.493Z,97395.28
2019-05-30T09:40:17.939Z,97402.09
2019-05-30T09:42:44.702Z,97396.23
2019-05-30T09:45:13.706Z,97398.08
2019-05-30T09:47:47.248Z,97394.23
2019-05-30T09:50:14.184Z,97401.20
2019-05-30T09:52:41.585Z,97402.55
2019-05-30T09:55:08.658Z,97395.86
2019-05-30T09:57:34.492Z,97393.70
2019-05-30T10:00:11.764Z,97402.02
2019-05-30T10:02:37.995Z,97173.54
2019-05-30T10:05:05.712Z,97398.16
2019-05-30T10:07:31.486Z,97395.22
2019-05-30T10:09:57.275Z,97390.80
2019-05-30T10:12:23.069Z,97385.23
2019-05-30T10:14:49.196Z,97382.30
2019-05-30T10:17:15.322Z,97384.23
2019-05-30T10:19:41.127Z,97388.64
2019-05-30T10:22:07.234Z,97388.42
2019-05-30T10:24:33.341Z,97393.15
2019-05-30T10:26:59.125Z,97391.91
2019-05-30T10:29:24.932Z,97328.33
2019-05-30T10:31:50.974Z,97388.44
2019-05-30T10:34:16.780Z,97384.86
2019-05-30T10:36:44.598Z,97376.28
2019-05-30T10:39:13.254Z,97376.53
2019-05-30T10:41:39.280Z,97161.98
2019-05-30T10:44:05.089Z,97379.24
2019-05-30T10:46:31.141Z,97382.34
2019-05-30T10:48:57.176Z,97385.38
2019-05-30T10:51:23.279Z,97390.03
2019-05-30T10:53:55.747Z,97388.41
2019-05-30T10:56:22.014Z,97388.98
2019-05-30T10:58:48.269Z,97389.07
2019-05-30T11:01:14.406Z,97378.28
2019-05-30T11:03:40.207Z,97384.80
2019-05-30T11:06:12.858Z,97385.68
2019-05-30T11:08:38.882Z,97386.09
2019-05-30T11:11:05.119Z,97379.08
2019-05-30T11:13:30.980Z,97380.19
2019-05-30T11:15:57.434Z,97380.87
2019-05-30T11:18:24.079Z,97373.09
2019-05-30T11:20:50.105Z,97362.75
2019-05-30T11:23:15.891Z,97364.70
2019-05-30T11:25:41.717Z,97368.03
2019-05-30T11:28:07.630Z,97369.95
2019-05-30T11:30:33.531Z,97359.56
2019-05-30T11:32:59.581Z,97367.12
2019-05-30T11:35:25.420Z,97361.56
2019-05-30T11:37:51.188Z,97364.20
2019-05-30T11:40:16.982Z,97361.63
2019-05-30T11:42:42.778Z,97356.55
2019-05-30T11:45:09.049Z,97347.46
2019-05-30T11:47:35.144Z,97345.77
2019-05-30T11:50:01.199Z,97349.98
2019-05-30T11:52:27.008Z,97351.05
2019-05-30T11:54:53.860Z,97346.23
2019-05-30T11:57:20.290Z,97354.75
2019-05-30T11:59:46.118Z,97347.16
2019-05-30T12:02:11.929Z,97344.41
2019-05-30T12:04:37.714Z,97340.39
2019-05-30T12:07:03.595Z,97337.75
2019-05-30T12:09:29.706Z,97341.23
2019-05-30T12:11:55.502Z,97341.23
2019-05-30T12:14:21.612Z,97333.42
2019-05-30T12:16:47.377Z,97337.69
2019-05-30T12:19:13.451Z,97336.65
2019-05-30T12:21:39.500Z,97333.37
2019-05-30T12:24:05.599Z,97330.98
2019-05-30T12:26:33.821Z,97326.98
2019-05-30T12:29:00.126Z,97327.94
2019-05-30T12:31:26.025Z,97329.12
2019-05-30T12:33:52.346Z,97325.93
2019-05-30T12:36:18.406Z,97320.08
2019-05-30T12:38:44.219Z,97320.09
2019-05-30T12:41:10.016Z,97319.41
2019-05-30T12:43:35.845Z,97325.81
2019-05-30T12:46:01.658Z,97327.93
2019-05-30T12:48:27.709Z,97321.09
2019-05-30T12:50:53.518Z,97315.70
2019-05-30T12:53:19.538Z,97322.62
2019-05-30T12:55:45.379Z,97322.48
2019-05-30T12:58:11.191Z,97316.27
2019-05-30T13:00:38.984Z,97320.74
2019-05-30T13:03:04.823Z,97319.83
2019-05-30T13:05:30.888Z,97324.48
2019-05-30T13:08:11.966Z,97317.55
2019-05-30T13:10:25.546Z,97320.31
2019-05-30T13:12:51.421Z,97328.30
2019-05-30T13:15:17.353Z,97324.98
2019-05-30T13:17:43.138Z,97322.41
2019-05-30T13:20:09.608Z,97323.95
2019-05-30T13:22:36.501Z,97328.91
2019-05-30T13:25:11.299Z,97327.84
2019-05-30T13:27:37.102Z,97311.56
2019-05-30T13:30:07.796Z,97330.33
2019-05-30T13:32:33.868Z,97329.91
2019-05-30T13:34:59.659Z,97329.20
2019-05-30T13:37:26.637Z,97332.87
2019-05-30T13:39:55.463Z,97339.73
2019-05-30T13:42:21.570Z,97333.41
2019-05-30T13:44:47.608Z,97337.23
2019-05-30T13:47:13.667Z,97344.09
2019-05-30T13:49:39.496Z,97341.63
2019-05-30T13:52:05.333Z,97345.45
2019-05-30T13:54:31.448Z,97329.38
2019-05-30T13:56:57.306Z,97347.52
2019-05-30T13:59:23.317Z,97344.91
2019-05-30T14:01:49.407Z,97343.83
2019-05-30T14:04:15.237Z,97347.91
2019-05-30T14:06:41.307Z,97344.86
2019-05-30T14:09:08.446Z,97343.81
2019-05-30T14:11:34.727Z,97339.17
2019-05-30T14:14:00.807Z,97340.56
2019-05-30T14:16:26.620Z,97349.76
2019-05-30T14:18:52.428Z,97335.81
2019-05-30T14:21:18.519Z,97341.72
2019-05-30T14:23:44.319Z,97338.36
2019-05-30T14:26:11.475Z,97336.82
2019-05-30T14:28:40.218Z,97343.78
2019-05-30T14:31:06.791Z,97349.36
2019-05-30T14:33:32.883Z,97347.92
2019-05-30T14:35:58.700Z,97350.83
2019-05-30T14:38:24.517Z,97347.52
2019-05-30T14:40:50.319Z,97353.43
2019-05-30T14:43:16.180Z,97348.77
2019-05-30T14:45:41.971Z,97341.58
2019-05-30T14:48:08.575Z,97339.35
2019-05-30T14:50:34.787Z,97345.05
2019-05-30T14:53:00.706Z,97342.88
2019-05-30T14:55:26.756Z,97341.97
2019-05-30T14:57:52.551Z,97341.34
2019-05-30T15:00:18.923Z,97331.85
2019-05-30T15:02:44.847Z,97332.13
2019-05-30T15:05:13.784Z,97335.17
2019-05-30T15:07:39.734Z,97329.17
2019-05-30T15:10:08.495Z,97254.92
2019-05-30T15:12:34.849Z,97330.88
2019-05-30T15:15:00.989Z,97324.68
2019-05-30T15:17:26.759Z,97326.96
2019-05-30T15:19:52.622Z,97322.20
2019-05-30T15:22:18.564Z,97326.59
2019-05-30T15:24:44.655Z,97321.73
2019-05-30T15:27:10.458Z,97320.17
2019-05-30T15:29:36.616Z,97318.26
2019-05-30T15:32:02.428Z,97319.36
2019-05-30T15:34:28.229Z,97319.47
2019-05-30T15:36:54.032Z,97317.50
2019-05-30T15:39:32.524Z,97320.84
2019-05-30T15:41:47.519Z,97313.11
2019-05-30T15:44:15.861Z,97327.78
2019-05-30T15:46:41.673Z,97327.45
2019-05-30T15:49:08.174Z,97324.99
2019-05-30T15:51:34.032Z,97331.48
2019-05-30T15:54:00.107Z,97331.82
2019-05-30T15:56:25.914Z,97335.89
2019-05-30T15:58:51.982Z,97332.57
2019-05-30T16:01:18.041Z,97332.24
2019-05-30T16:03:43.905Z,97333.15
2019-05-30T16:06:10.477Z,97331.76
2019-05-30T16:08:36.597Z,97329.29
2019-05-30T16:11:02.408Z,97332.38
2019-05-30T16:13:28.196Z,97282.49
2019-05-30T16:15:54.320Z,97335.56
2019-05-30T16:18:20.348Z,97336.44
2019-05-30T16:20:46.499Z,97332.09
2019-05-30T16:23:12.687Z,97332.91
2019-05-30T16:25:44.733Z,97331.37
2019-05-30T16:28:13.788Z,96926.64
2019-05-30T16:30:39.755Z,97334.62
2019-05-30T16:33:05.808Z,97328.44
2019-05-30T16:35:31.586Z,97335.30
2019-05-30T16:37:57.410Z,97335.03
2019-05-30T16:40:23.575Z,97329.45
2019-05-30T16:42:49.382Z,97334.73
2019-05-30T16:45:20.349Z,97329.21
2019-05-30T16:47:42.908Z,97330.68
2019-05-30T16:50:10.968Z,97327.66
2019-05-30T16:52:36.745Z,97326.11
2019-05-30T16:55:04.738Z,97332.95
2019-05-30T16:57:30.524Z,97331.45
2019-05-30T16:59:56.616Z,97334.61
2019-05-30T17:02:22.833Z,97328.22
2019-05-30T17:04:48.877Z,97328.70
2019-05-30T17:07:15.039Z,97328.78
2019-05-30T17:09:44.302Z,97325.45
2019-05-30T17:12:10.081Z,97336.38
2019-05-30T17:14:35.893Z,97332.63
2019-05-30T17:17:02.982Z,97336.45
2019-05-30T17:19:29.238Z,97332.20
2019-05-30T17:21:55.034Z,97336.06
2019-05-30T17:24:21.029Z,97336.56
2019-05-30T17:26:46.855Z,97329.34
2019-05-30T17:29:12.914Z,97340.39
2019-05-30T17:31:38.965Z,97336.95
2019-05-30T17:34:04.790Z,97344.95
2019-05-30T17:36:30.570Z,97345.82
2019-05-30T17:38:56.535Z,97353.21
2019-05-30T17:41:22.765Z,97351.75
2019-05-30T17:43:48.592Z,97354.32
2019-05-30T17:46:14.660Z,97352.47
2019-05-30T17:48:40.653Z,97358.53
2019-05-30T17:51:06.479Z,97353.97
2019-05-30T17:53:32.568Z,97355.55
2019-05-30T17:55:59.464Z,97359.39
2019-05-30T17:58:25.953Z,97361.26
2019-05-30T18:00:51.783Z,97358.83
2019-05-30T18:03:17.606Z,97358.66
2019-05-30T18:05:43.405Z,97360.86
2019-05-30T18:08:09.217Z,97363.95
2019-05-30T18:10:35.061Z,97365.33
2019-05-30T18:13:01.273Z,97363.84
2019-05-30T18:15:31.996Z,97362.69
2019-05-30T18:17:57.930Z,97246.02
2019-05-30T18:20:23.833Z,97358.55
2019-05-30T18:22:49.914Z,97369.30
2019-05-30T18:25:16.034Z,97366.72
2019-05-30T18:27:41.847Z,97364.37
2019-05-30T18:30:08.968Z,97375.11
2019-05-30T18:32:34.791Z,97373.14
2019-05-30T18:35:00.579Z,97375.49
2019-05-30T18:37:34.903Z,97382.75
2019-05-30T18:40:02.342Z,97380.10
2019-05-30T18:42:29.250Z,97380.78
2019-05-30T18:44:55.308Z,97380.09
2019-05-30T18:47:21.296Z,97384.06
2019-05-30T18:49:47.360Z,97386.13
2019-05-30T18:52:13.290Z,97389.86
2019-05-30T18:54:39.085Z,97387.40
2019-05-30T18:57:04.905Z,97388.42
2019-05-30T18:59:33.245Z,97388.63
2019-05-30T19:02:01.604Z,97389.76
2019-05-30T19:04:28.097Z,97391.55
2019-05-30T19:06:54.931Z,97392.40
2019-05-30T19:09:22.179Z,97398.30
2019-05-30T19:11:52.188Z,97396.33
2019-05-30T19:14:18.300Z,97400.14
2019-05-30T19:16:47.897Z,97400.21
2019-05-30T19:19:15.167Z,97400.00
2019-05-30T19:21:41.199Z,97408.16
2019-05-30T19:24:07.728Z,97405.25
2019-05-30T19:26:34.726Z,97410.68
2019-05-30T19:29:00.705Z,97407.89
2019-05-30T19:31:26.548Z,97408.39
2019-05-30T19:33:52.325Z,97414.88
2019-05-30T19:36:18.117Z,97418.13
2019-05-30T19:38:43.923Z,97418.39
2019-05-30T19:41:09.720Z,97421.03
2019-05-30T19:43:35.929Z,97424.02
2019-05-30T19:46:04.778Z,97431.84
2019-05-30T19:48:30.822Z,97431.84
2019-05-30T19:50:59.172Z,97432.19
2019-05-30T19:53:25.914Z,97429.67
2019-05-30T19:55:52.782Z,97423.22
2019-05-30T19:58:18.596Z,97431.98
2019-05-30T20:00:58.374Z,97430.98
2019-05-30T20:03:36.433Z,97431.48
2019-05-30T20:05:52.269Z,97445.30
2019-05-30T20:08:18.083Z,97445.30
2019-05-30T20:10:44.246Z,97442.19
2019-05-30T20:13:10.156Z,97441.02
2019-05-30T20:15:39.574Z,97445.20
2019-05-30T20:20:50.379Z,97441.97
2019-05-30T20:23:05.842Z,97440.07
2019-05-30T20:25:32.629Z,97443.55
2019-05-30T20:27:58.553Z,97445.11
2019-05-30T20:30:24.505Z,97439.11
2019-05-30T20:32:50.589Z,97444.77
2019-05-30T20:35:16.527Z,97443.30
2019-05-30T20:37:42.993Z,97435.64
2019-05-30T20:40:10.184Z,97440.78
2019-05-30T20:42:36.808Z,97440.78
2019-05-30T20:45:09.736Z,97440.08
2019-05-30T20:47:35.963Z,97442.59
2019-05-30T20:50:06.298Z,97442.59
2019-05-30T20:52:32.428Z,97435.98
2019-05-30T20:54:58.326Z,97444.52
2019-05-30T20:57:24.166Z,97444.52
2019-05-30T20:59:50.254Z,97439.59
2019-05-30T21:02:16.349Z,97446.30
2019-05-30T21:04:42.997Z,97446.30
2019-05-30T21:07:09.017Z,97442.09
2019-05-30T21:09:35.943Z,97448.22
2019-05-30T21:12:02.850Z,97456.23
2019-05-30T21:14:32.123Z,97460.56
2019-05-30T21:16:59.514Z,97446.55
2019-05-30T21:19:25.363Z,97446.55
2019-05-30T21:21:51.196Z,97463.92
2019-05-30T21:24:17.325Z,97466.31
2019-05-30T21:26:44.862Z,97467.98
2019-05-30T21:29:10.823Z,97467.98
2019-05-30T21:31:37.247Z,97468.58
2019-05-30T21:34:03.633Z,97468.22
2019-05-30T21:36:29.568Z,97468.23
2019-05-30T21:38:55.323Z,97466.17
2019-05-30T21:41:21.137Z,97468.95
2019-05-30T21:43:47.011Z,97478.03
2019-05-30T21:46:13.101Z,97470.13
2019-05-30T21:48:38.948Z,97477.67
2019-05-30T21:51:05.033Z,97475.75
2019-05-30T21:53:30.826Z,97471.20
2019-05-30T21:55:56.903Z,97474.44
2019-05-30T21:58:22.700Z,97467.96
2019-05-30T22:01:07.681Z,97467.96
2019-05-30T22:03:33.733Z,97474.08
2019-05-30T22:05:59.567Z,97476.33
2019-05-30T22:08:25.404Z,97475.61
2019-05-30T22:10:51.732Z,97456.67
2019-05-30T22:13:17.787Z,97476.33
2019-05-30T22:15:43.696Z,97476.33
2019-05-30T22:18:15.535Z,97478.85
2019-05-30T22:20:41.758Z,97357.33
2019-05-30T22:23:10.902Z,97473.34
2019-05-30T22:25:35.652Z,97473.44
2019-05-30T22:28:01.442Z,97469.34
2019-05-30T22:30:27.278Z,97473.44
2019-05-30T22:32:53.085Z,97476.92
2019-05-30T22:35:18.927Z,97475.72
2019-05-30T22:37:44.870Z,97474.25
2019-05-30T22:40:11.078Z,97469.34
2019-05-30T22:42:36.900Z,97471.52
2019-05-30T22:45:04.553Z,97471.11
2019-05-30T22:47:30.808Z,97477.84
2019-05-30T22:49:57.026Z,97469.13
2019-05-30T22:52:23.081Z,97468.63
2019-05-30T22:54:49.158Z,97468.98
2019-05-30T22:57:14.967Z,97466.34
2019-05-30T22:59:40.785Z,97466.34
2019-05-30T23:02:06.884Z,97467.67
2019-05-30T23:04:32.704Z,97462.55
2019-05-30T23:06:58.527Z,97466.34
2019-05-30T23:09:24.529Z,97462.23
2019-05-30T23:11:50.318Z,97455.45
2019-05-30T23:14:16.111Z,97460.72
2019-05-30T23:16:42.021Z,97455.66
2019-05-30T23:19:07.909Z,97457.48
2019-05-30T23:21:33.935Z,97447.47
2019-05-30T23:23:59.756Z,97455.36
2019-05-30T23:26:25.548Z,97452.94
2019-05-30T23:28:51.852Z,97447.17
2019-05-30T23:31:17.764Z,97449.45
2019-05-30T23:33:43.938Z,97446.09
2019-05-30T23:36:09.802Z,97447.91
2019-05-30T23:38:35.620Z,97448.63
2019-05-30T23:41:04.434Z,97445.32
2019-05-30T23:43:30.510Z,97463.19
2019-05-30T23:45:57.531Z,97446.55
2019-05-30T23:48:23.390Z,97441.78
2019-05-30T23:50:49.738Z,97443.30
2019-05-30T23:53:15.610Z,97439.63
2019-05-30T23:55:41.666Z,97437.73
2019-05-30T23:58:07.471Z,97441.54
